CheckWX is a tool to help pilots better visualize weather data.  It is not intended as a substitute for an official pre-flight weather briefing.

06:45:31 UTC

RJEC TAF
Asahikawa Airport
Asahikawa / Hokkaidō, Japan
TAF RJEC 160511Z 1606/1712 01020KT 9999 -SHRA FEW006 BKN015 TEMPO 1607/1613 3000 SHRA BR FEW003 BKN006 TEMPO 1613/1618 4000 -SHRA BR FEW003 BKN006 BECMG 1709/1712 34008KT

Jun-16@
06:00 UTC

Jun-16 @ 06:00 UTC

Jun-17@
09:00 UTC

Jun-17 @ 09:00 UTC

TAF RJEC 160511Z 1606/1712 01020KT 9999 -SHRA FEW006 BKN015
Wind
  • 010° at 20 KTS
Conditions
Light Rain
Cloud Levels
  • Few at 600' AGL
  • Broken at 1,500' AGL

Jun-16@
07:00 UTC

Jun-16 @ 07:00 UTC

Jun-16@
13:00 UTC

Jun-16 @ 13:00 UTC

TEMPO 1607/1613 3000 SHRA BR FEW003 BKN006

Temporary

Temporary Changes expected for less than half the time period

Conditions
Rain, Mist
Cloud Levels
  • Few at 300' AGL
  • Broken at 600' AGL

Jun-16@
13:00 UTC

Jun-16 @ 13:00 UTC

Jun-16@
18:00 UTC

Jun-16 @ 18:00 UTC

TEMPO 1613/1618 4000 -SHRA BR FEW003 BKN006

Temporary

Temporary Changes expected for less than half the time period

Conditions
Light Rain, Mist
Cloud Levels
  • Few at 300' AGL
  • Broken at 600' AGL

Jun-17@
09:00 UTC

Jun-17 @ 09:00 UTC

Jun-17@
12:00 UTC

Jun-17 @ 12:00 UTC

BECMG 1709/1712 34008KT

Becoming

Becoming Conditions expected by Mon, Jun 17, 2019 @ 12:00 UTC

Wind
  • 340° at 8 KTS
Conditions
Light Rain
Cloud Levels
  • Few at 600' AGL
  • Broken at 1,500' AGL